Stolt Dipper — ZCMY3 — position and weather

sailwx.info

Track history (hours):
 
Tides and Currents Weather Stations Pressure Air Temp Water Temp Dewpoint Dewpoint Depression Visibility Wind Speed Wind Dir Waves Ship Positions

Stolt Dipper

Last reported at 2015-Mar-01 09:33 UTC. Time now 2015-Mar-01 23:29 UTC.
Position N 48°54' W 002°30'.

Length 96 m; draft 6.7 m.

Type: Ship (hazmat cat B). MMSI: 319036000.

Date/timePositionNaut miles runAvg speedWind from/ knotsBaromVisibWave heightAir tempDewpointWater temp
2015-Mar-01 09:33N 48°54' W 002°30'2010.2
2015-Mar-01 07:33N 49°11' W 002°49'263 7.3
2015-Feb-27 19:33N 53°33' W 003°25'1111.2
2015-Feb-27 18:33N 53°31' W 003°06'8 0.3
2015-Feb-26 11:33N 53°24' W 003°00'1110.8
2015-Feb-26 10:33N 53°31' W 003°13'7 7.5
2015-Feb-26 09:33N 53°29' W 003°26'0 0.1
2015-Feb-26 08:33N 53°29' W 003°25'0 0.1
2015-Feb-26 07:27N 53°29' W 003°25'0 0.0
2015-Feb-26 06:33N 53°30' W 003°25'0 0.0
2015-Feb-26 05:15N 53°29' W 003°25'0 0.0
2015-Feb-26 04:27N 53°29' W 003°25'0 0.0
2015-Feb-26 03:33N 53°29' W 003°25'0 0.0
2015-Feb-26 02:33N 53°29' W 003°25'0 0.0
2015-Feb-26 01:33N 53°29' W 003°25'0 0.0
2015-Feb-26 00:33N 53°29' W 003°25'0 0.0
2015-Feb-25 23:21N 53°29' W 003°25'0 0.1
2015-Feb-25 22:09N 53°29' W 003°26'54 2.0
2015-Feb-24 19:10N 54°09' W 004°26'10 0.4
2015-Feb-23 20:24N 53°60' W 004°24'49 8.3
2015-Feb-23 14:33N 53°29' W 003°19'9 9.4
2015-Feb-23 13:33N 53°28' W 003°04'6 0.3
2015-Feb-22 15:33N 53°23' W 003°00'8 7.8
2015-Feb-22 14:33N 53°30' W 003°06'9 8.7
2015-Feb-22 13:33N 53°32' W 003°21'4 2.1
2015-Feb-22 11:28N 53°29' W 003°27'0 0.0
2015-Feb-22 10:10N 53°29' W 003°27'0 0.1
2015-Feb-22 09:29N 53°29' W 003°27'256 6.4
2015-Feb-20 17:15N 49°38' W 000°30'1014.0
2015-Feb-20 16:33N 49°33' W 000°17'1413.6
2015-Feb-20 15:33N 49°27' E 000°02'1716.6
2015-Feb-20 14:33N 49°28' E 000°27'3 0.2
2015-Feb-19 21:32N 49°28' E 000°32'1313.1
2015-Feb-19 20:33N 49°26' E 000°13'1313.0
2015-Feb-19 19:34N 49°29' W 000°07'1414.0
2015-Feb-19 18:33N 49°34' W 000°27'  
Track history (hours):
 
Tides and Currents Weather Stations Pressure Air Temp Water Temp Dewpoint Dewpoint Depression Visibility Wind Speed Wind Dir Waves Ship Positions

Stolt Dipper

Last reported at 2015-Mar-01 09:33 UTC. Time now 2015-Mar-01 23:29 UTC.
Position N 48°54' W 002°30'.

Length 96 m; draft 6.7 m.

Type: Ship (hazmat cat B). MMSI: 319036000.

Date/timePositionNaut miles runAvg speedWind from/ knotsBaromVisibWave heightAir tempDewpointWater temp
2015-Mar-01 09:33N 48°54' W 002°30'2010.2
2015-Mar-01 07:33N 49°11' W 002°49'263 7.3
2015-Feb-27 19:33N 53°33' W 003°25'1111.2
2015-Feb-27 18:33N 53°31' W 003°06'8 0.3
2015-Feb-26 11:33N 53°24' W 003°00'1110.8
2015-Feb-26 10:33N 53°31' W 003°13'7 7.5
2015-Feb-26 09:33N 53°29' W 003°26'0 0.1
2015-Feb-26 08:33N 53°29' W 003°25'0 0.1
2015-Feb-26 07:27N 53°29' W 003°25'0 0.0
2015-Feb-26 06:33N 53°30' W 003°25'0 0.0
2015-Feb-26 05:15N 53°29' W 003°25'0 0.0
2015-Feb-26 04:27N 53°29' W 003°25'0 0.0
2015-Feb-26 03:33N 53°29' W 003°25'0 0.0
2015-Feb-26 02:33N 53°29' W 003°25'0 0.0
2015-Feb-26 01:33N 53°29' W 003°25'0 0.0
2015-Feb-26 00:33N 53°29' W 003°25'0 0.0
2015-Feb-25 23:21N 53°29' W 003°25'0 0.1
2015-Feb-25 22:09N 53°29' W 003°26'54 2.0
2015-Feb-24 19:10N 54°09' W 004°26'10 0.4
2015-Feb-23 20:24N 53°60' W 004°24'49 8.3
2015-Feb-23 14:33N 53°29' W 003°19'9 9.4
2015-Feb-23 13:33N 53°28' W 003°04'6 0.3
2015-Feb-22 15:33N 53°23' W 003°00'8 7.8
2015-Feb-22 14:33N 53°30' W 003°06'9 8.7
2015-Feb-22 13:33N 53°32' W 003°21'4 2.1
2015-Feb-22 11:28N 53°29' W 003°27'0 0.0
2015-Feb-22 10:10N 53°29' W 003°27'0 0.1
2015-Feb-22 09:29N 53°29' W 003°27'256 6.4
2015-Feb-20 17:15N 49°38' W 000°30'1014.0
2015-Feb-20 16:33N 49°33' W 000°17'1413.6
2015-Feb-20 15:33N 49°27' E 000°02'1716.6
2015-Feb-20 14:33N 49°28' E 000°27'3 0.2
2015-Feb-19 21:32N 49°28' E 000°32'1313.1
2015-Feb-19 20:33N 49°26' E 000°13'1313.0
2015-Feb-19 19:34N 49°29' W 000°07'1414.0
2015-Feb-19 18:33N 49°34' W 000°27'  

Dump ship's entire track history